sensor_id;sensor_type;location;lat;lon;timestamp;P1;durP1;ratioP1;P2;durP2;ratioP2
50649;SDS011;36621;60.058;30.346;2023-06-26T00:06:06;6.50;;;5.57;;
50649;SDS011;36621;60.058;30.346;2023-06-26T00:13:39;6.97;;;5.72;;
50649;SDS011;36621;60.058;30.346;2023-06-26T00:21:11;5.85;;;5.25;;
50649;SDS011;36621;60.058;30.346;2023-06-26T00:28:43;6.22;;;5.63;;
50649;SDS011;36621;60.058;30.346;2023-06-26T00:36:15;6.43;;;5.63;;
50649;SDS011;36621;60.058;30.346;2023-06-26T00:43:49;7.95;;;5.85;;
50649;SDS011;36621;60.058;30.346;2023-06-26T00:51:21;7.90;;;6.45;;
50649;SDS011;36621;60.058;30.346;2023-06-26T00:58:56;7.00;;;6.30;;
50649;SDS011;36621;60.058;30.346;2023-06-26T01:06:33;15.05;;;7.53;;
50649;SDS011;36621;60.058;30.346;2023-06-26T01:14:07;9.20;;;6.97;;
50649;SDS011;36621;60.058;30.346;2023-06-26T01:21:40;7.00;;;6.30;;
50649;SDS011;36621;60.058;30.346;2023-06-26T01:29:15;12.30;;;7.82;;
50649;SDS011;36621;60.058;30.346;2023-06-26T01:36:49;14.88;;;8.55;;
50649;SDS011;36621;60.058;30.346;2023-06-26T01:44:27;27.90;;;9.93;;
50649;SDS011;36621;60.058;30.346;2023-06-26T01:52:03;19.58;;;8.75;;
50649;SDS011;36621;60.058;30.346;2023-06-26T01:59:41;24.25;;;9.43;;
50649;SDS011;36621;60.058;30.346;2023-06-26T02:07:14;43.92;;;11.25;;
50649;SDS011;36621;60.058;30.346;2023-06-26T02:14:47;21.42;;;8.93;;
50649;SDS011;36621;60.058;30.346;2023-06-26T02:22:19;16.60;;;8.48;;
50649;SDS011;36621;60.058;30.346;2023-06-26T02:29:53;30.80;;;9.95;;
50649;SDS011;36621;60.058;30.346;2023-06-26T02:37:25;16.65;;;7.65;;
50649;SDS011;36621;60.058;30.346;2023-06-26T02:44:58;10.82;;;6.70;;
50649;SDS011;36621;60.058;30.346;2023-06-26T02:52:30;15.10;;;6.95;;
50649;SDS011;36621;60.058;30.346;2023-06-26T03:00:04;11.27;;;6.97;;
50649;SDS011;36621;60.058;30.346;2023-06-26T03:07:45;18.42;;;8.32;;
50649;SDS011;36621;60.058;30.346;2023-06-26T03:15:18;11.73;;;7.20;;
50649;SDS011;36621;60.058;30.346;2023-06-26T03:22:50;7.95;;;6.93;;
50649;SDS011;36621;60.058;30.346;2023-06-26T03:30:26;9.95;;;7.18;;
50649;SDS011;36621;60.058;30.346;2023-06-26T03:38:01;9.70;;;6.32;;
50649;SDS011;36621;60.058;30.346;2023-06-26T03:45:35;9.45;;;6.50;;
50649;SDS011;36621;60.058;30.346;2023-06-26T03:53:09;13.38;;;6.93;;
50649;SDS011;36621;60.058;30.346;2023-06-26T04:00:41;17.95;;;7.40;;
50649;SDS011;36621;60.058;30.346;2023-06-26T04:08:14;15.20;;;8.63;;
50649;SDS011;36621;60.058;30.346;2023-06-26T04:15:46;16.02;;;8.23;;
50649;SDS011;36621;60.058;30.346;2023-06-26T04:23:18;22.17;;;8.70;;
50649;SDS011;36621;60.058;30.346;2023-06-26T04:30:51;14.30;;;8.48;;
50649;SDS011;36621;60.058;30.346;2023-06-26T04:38:24;14.95;;;7.72;;
50649;SDS011;36621;60.058;30.346;2023-06-26T04:45:57;11.70;;;7.63;;
50649;SDS011;36621;60.058;30.346;2023-06-26T04:53:29;10.77;;;6.50;;
50649;SDS011;36621;60.058;30.346;2023-06-26T05:01:02;12.35;;;6.53;;
50649;SDS011;36621;60.058;30.346;2023-06-26T05:08:35;12.00;;;5.53;;
50649;SDS011;36621;60.058;30.346;2023-06-26T05:16:08;14.57;;;5.80;;
50649;SDS011;36621;60.058;30.346;2023-06-26T05:23:41;6.82;;;4.97;;
50649;SDS011;36621;60.058;30.346;2023-06-26T05:31:16;4.50;;;4.10;;
50649;SDS011;36621;60.058;30.346;2023-06-26T05:38:49;9.50;;;4.10;;
50649;SDS011;36621;60.058;30.346;2023-06-26T05:46:22;5.32;;;3.80;;
50649;SDS011;36621;60.058;30.346;2023-06-26T05:53:55;3.92;;;3.20;;
50649;SDS011;36621;60.058;30.346;2023-06-26T06:01:30;4.72;;;3.65;;
50649;SDS011;36621;60.058;30.346;2023-06-26T06:09:04;6.32;;;4.00;;
50649;SDS011;36621;60.058;30.346;2023-06-26T06:16:37;5.65;;;3.58;;
50649;SDS011;36621;60.058;30.346;2023-06-26T06:24:09;5.20;;;3.80;;
50649;SDS011;36621;60.058;30.346;2023-06-26T06:31:41;6.05;;;3.80;;
50649;SDS011;36621;60.058;30.346;2023-06-26T06:39:13;7.55;;;4.00;;
50649;SDS011;36621;60.058;30.346;2023-06-26T06:46:46;6.53;;;4.07;;
50649;SDS011;36621;60.058;30.346;2023-06-26T06:54:18;10.63;;;4.65;;
50649;SDS011;36621;60.058;30.346;2023-06-26T07:01:51;7.82;;;4.30;;
50649;SDS011;36621;60.058;30.346;2023-06-26T07:09:23;9.85;;;4.85;;
50649;SDS011;36621;60.058;30.346;2023-06-26T07:16:56;9.80;;;4.38;;
50649;SDS011;36621;60.058;30.346;2023-06-26T07:24:28;7.40;;;4.57;;
50649;SDS011;36621;60.058;30.346;2023-06-26T07:32:01;10.73;;;4.63;;
50649;SDS011;36621;60.058;30.346;2023-06-26T07:39:33;7.43;;;4.53;;
50649;SDS011;36621;60.058;30.346;2023-06-26T07:47:05;8.93;;;4.85;;
50649;SDS011;36621;60.058;30.346;2023-06-26T07:54:37;9.18;;;4.43;;
50649;SDS011;36621;60.058;30.346;2023-06-26T08:02:10;8.40;;;4.22;;
50649;SDS011;36621;60.058;30.346;2023-06-26T08:09:42;5.38;;;3.92;;
50649;SDS011;36621;60.058;30.346;2023-06-26T08:17:15;4.75;;;4.22;;
50649;SDS011;36621;60.058;30.346;2023-06-26T08:24:51;6.45;;;4.25;;
50649;SDS011;36621;60.058;30.346;2023-06-26T08:32:56;6.03;;;4.47;;
50649;SDS011;36621;60.058;30.346;2023-06-26T08:48:37;6.78;;;4.80;;
50649;SDS011;36621;60.058;30.346;2023-06-26T08:56:44;8.60;;;5.30;;
50649;SDS011;36621;60.058;30.346;2023-06-26T09:05:15;14.13;;;5.22;;
50649;SDS011;36621;60.058;30.346;2023-06-26T09:12:50;10.17;;;5.33;;
50649;SDS011;36621;60.058;30.346;2023-06-26T09:20:32;6.83;;;5.40;;
50649;SDS011;36621;60.058;30.346;2023-06-26T09:28:04;5.72;;;5.00;;
50649;SDS011;36621;60.058;30.346;2023-06-26T09:35:37;7.03;;;4.50;;
50649;SDS011;36621;60.058;30.346;2023-06-26T09:43:09;7.20;;;4.65;;
50649;SDS011;36621;60.058;30.346;2023-06-26T09:50:45;9.87;;;5.63;;
50649;SDS011;36621;60.058;30.346;2023-06-26T09:58:18;5.20;;;4.70;;
50649;SDS011;36621;60.058;30.346;2023-06-26T10:05:51;5.82;;;4.60;;
50649;SDS011;36621;60.058;30.346;2023-06-26T10:13:25;6.72;;;5.32;;
50649;SDS011;36621;60.058;30.346;2023-06-26T10:21:09;8.48;;;5.20;;
50649;SDS011;36621;60.058;30.346;2023-06-26T10:28:45;10.07;;;5.07;;
50649;SDS011;36621;60.058;30.346;2023-06-26T10:36:28;6.35;;;4.28;;
50649;SDS011;36621;60.058;30.346;2023-06-26T10:44:08;9.75;;;4.93;;
50649;SDS011;36621;60.058;30.346;2023-06-26T10:51:46;7.60;;;4.78;;
50649;SDS011;36621;60.058;30.346;2023-06-26T10:59:20;12.35;;;5.40;;
50649;SDS011;36621;60.058;30.346;2023-06-26T11:06:54;8.48;;;4.13;;
50649;SDS011;36621;60.058;30.346;2023-06-26T11:14:47;5.20;;;4.53;;
50649;SDS011;36621;60.058;30.346;2023-06-26T11:22:20;6.93;;;4.00;;
50649;SDS011;36621;60.058;30.346;2023-06-26T11:29:55;7.33;;;4.50;;
50649;SDS011;36621;60.058;30.346;2023-06-26T11:37:28;6.88;;;4.68;;
50649;SDS011;36621;60.058;30.346;2023-06-26T11:45:00;13.25;;;4.18;;
50649;SDS011;36621;60.058;30.346;2023-06-26T11:52:35;12.02;;;4.85;;
50649;SDS011;36621;60.058;30.346;2023-06-26T12:00:11;14.07;;;4.80;;
50649;SDS011;36621;60.058;30.346;2023-06-26T12:07:44;7.60;;;4.38;;
50649;SDS011;36621;60.058;30.346;2023-06-26T12:15:19;5.97;;;4.35;;
50649;SDS011;36621;60.058;30.346;2023-06-26T12:22:52;6.60;;;4.82;;
50649;SDS011;36621;60.058;30.346;2023-06-26T12:30:24;7.70;;;4.57;;
50649;SDS011;36621;60.058;30.346;2023-06-26T12:37:57;13.38;;;5.00;;
50649;SDS011;36621;60.058;30.346;2023-06-26T12:45:37;31.00;;;7.78;;
50649;SDS011;36621;60.058;30.346;2023-06-26T12:53:10;26.95;;;17.25;;
50649;SDS011;36621;60.058;30.346;2023-06-26T13:00:42;17.25;;;13.05;;
50649;SDS011;36621;60.058;30.346;2023-06-26T13:08:15;16.45;;;7.95;;
50649;SDS011;36621;60.058;30.346;2023-06-26T13:15:48;13.95;;;6.18;;
50649;SDS011;36621;60.058;30.346;2023-06-26T13:23:20;15.60;;;7.43;;
50649;SDS011;36621;60.058;30.346;2023-06-26T13:30:52;10.68;;;7.60;;
50649;SDS011;36621;60.058;30.346;2023-06-26T13:38:26;19.25;;;7.15;;
50649;SDS011;36621;60.058;30.346;2023-06-26T13:45:58;13.57;;;8.52;;
50649;SDS011;36621;60.058;30.346;2023-06-26T13:53:30;11.70;;;7.00;;
50649;SDS011;36621;60.058;30.346;2023-06-26T14:01:02;13.38;;;7.53;;
50649;SDS011;36621;60.058;30.346;2023-06-26T14:08:35;12.80;;;6.63;;
50649;SDS011;36621;60.058;30.346;2023-06-26T14:16:07;10.05;;;8.07;;
50649;SDS011;36621;60.058;30.346;2023-06-26T14:23:40;13.63;;;8.13;;
50649;SDS011;36621;60.058;30.346;2023-06-26T14:31:12;15.35;;;9.20;;
50649;SDS011;36621;60.058;30.346;2023-06-26T14:38:45;18.35;;;12.25;;
50649;SDS011;36621;60.058;30.346;2023-06-26T14:46:17;28.70;;;14.50;;
50649;SDS011;36621;60.058;30.346;2023-06-26T14:53:52;31.58;;;16.40;;
50649;SDS011;36621;60.058;30.346;2023-06-26T15:01:24;20.88;;;10.98;;
50649;SDS011;36621;60.058;30.346;2023-06-26T15:08:57;14.57;;;9.25;;
50649;SDS011;36621;60.058;30.346;2023-06-26T15:16:29;22.23;;;8.88;;
50649;SDS011;36621;60.058;30.346;2023-06-26T15:24:02;27.52;;;10.73;;
50649;SDS011;36621;60.058;30.346;2023-06-26T15:31:34;14.52;;;7.82;;
50649;SDS011;36621;60.058;30.346;2023-06-26T15:39:06;12.07;;;6.50;;
50649;SDS011;36621;60.058;30.346;2023-06-26T15:46:38;12.48;;;7.03;;
50649;SDS011;36621;60.058;30.346;2023-06-26T15:54:11;15.07;;;5.97;;
50649;SDS011;36621;60.058;30.346;2023-06-26T16:01:43;11.32;;;6.10;;
50649;SDS011;36621;60.058;30.346;2023-06-26T16:09:17;14.18;;;7.25;;
50649;SDS011;36621;60.058;30.346;2023-06-26T16:16:49;17.10;;;7.35;;
50649;SDS011;36621;60.058;30.346;2023-06-26T16:24:22;13.20;;;6.43;;
50649;SDS011;36621;60.058;30.346;2023-06-26T16:31:54;17.95;;;8.60;;
50649;SDS011;36621;60.058;30.346;2023-06-26T16:39:26;20.25;;;8.30;;
50649;SDS011;36621;60.058;30.346;2023-06-26T16:46:58;12.93;;;7.53;;
50649;SDS011;36621;60.058;30.346;2023-06-26T16:54:33;12.30;;;7.43;;
50649;SDS011;36621;60.058;30.346;2023-06-26T17:02:05;11.32;;;7.45;;
50649;SDS011;36621;60.058;30.346;2023-06-26T17:09:38;12.90;;;7.60;;
50649;SDS011;36621;60.058;30.346;2023-06-26T17:17:10;13.93;;;7.28;;
50649;SDS011;36621;60.058;30.346;2023-06-26T17:24:43;9.55;;;6.55;;
50649;SDS011;36621;60.058;30.346;2023-06-26T17:32:15;11.15;;;6.80;;
50649;SDS011;36621;60.058;30.346;2023-06-26T17:39:47;11.75;;;6.95;;
50649;SDS011;36621;60.058;30.346;2023-06-26T17:47:20;14.98;;;7.55;;
50649;SDS011;36621;60.058;30.346;2023-06-26T17:54:52;14.98;;;6.75;;
50649;SDS011;36621;60.058;30.346;2023-06-26T18:02:25;21.73;;;9.73;;
50649;SDS011;36621;60.058;30.346;2023-06-26T18:09:57;17.02;;;9.85;;
50649;SDS011;36621;60.058;30.346;2023-06-26T18:17:29;22.10;;;11.70;;
50649;SDS011;36621;60.058;30.346;2023-06-26T18:25:03;13.85;;;10.32;;
50649;SDS011;36621;60.058;30.346;2023-06-26T18:32:36;13.88;;;9.10;;
50649;SDS011;36621;60.058;30.346;2023-06-26T18:40:09;12.00;;;7.72;;
50649;SDS011;36621;60.058;30.346;2023-06-26T18:47:45;23.65;;;8.68;;
50649;SDS011;36621;60.058;30.346;2023-06-26T18:55:18;27.17;;;9.02;;
50649;SDS011;36621;60.058;30.346;2023-06-26T19:02:50;13.00;;;8.02;;
50649;SDS011;36621;60.058;30.346;2023-06-26T19:10:23;15.90;;;9.20;;
50649;SDS011;36621;60.058;30.346;2023-06-26T19:17:55;15.25;;;8.77;;
50649;SDS011;36621;60.058;30.346;2023-06-26T19:25:28;12.93;;;9.20;;
50649;SDS011;36621;60.058;30.346;2023-06-26T19:33:00;16.42;;;9.43;;
50649;SDS011;36621;60.058;30.346;2023-06-26T19:40:33;16.98;;;11.43;;
50649;SDS011;36621;60.058;30.346;2023-06-26T19:48:06;17.95;;;11.13;;
50649;SDS011;36621;60.058;30.346;2023-06-26T19:55:39;19.98;;;11.40;;
50649;SDS011;36621;60.058;30.346;2023-06-26T20:03:11;18.98;;;11.25;;
50649;SDS011;36621;60.058;30.346;2023-06-26T20:10:47;21.67;;;11.50;;
50649;SDS011;36621;60.058;30.346;2023-06-26T20:18:19;17.23;;;9.48;;
50649;SDS011;36621;60.058;30.346;2023-06-26T20:25:53;19.30;;;9.90;;
50649;SDS011;36621;60.058;30.346;2023-06-26T20:33:25;23.00;;;15.13;;
50649;SDS011;36621;60.058;30.346;2023-06-26T20:40:58;18.20;;;11.13;;
50649;SDS011;36621;60.058;30.346;2023-06-26T20:48:31;14.20;;;9.25;;
50649;SDS011;36621;60.058;30.346;2023-06-26T20:56:05;21.55;;;11.30;;
50649;SDS011;36621;60.058;30.346;2023-06-26T21:03:38;19.35;;;10.75;;
50649;SDS011;36621;60.058;30.346;2023-06-26T21:11:10;16.92;;;9.73;;
50649;SDS011;36621;60.058;30.346;2023-06-26T21:18:42;15.80;;;9.27;;
50649;SDS011;36621;60.058;30.346;2023-06-26T21:26:15;18.33;;;9.90;;
50649;SDS011;36621;60.058;30.346;2023-06-26T21:33:47;31.20;;;10.80;;
50649;SDS011;36621;60.058;30.346;2023-06-26T21:41:20;51.63;;;13.45;;
50649;SDS011;36621;60.058;30.346;2023-06-26T21:48:52;43.20;;;13.07;;
50649;SDS011;36621;60.058;30.346;2023-06-26T21:56:25;55.45;;;16.23;;
50649;SDS011;36621;60.058;30.346;2023-06-26T22:03:57;40.72;;;14.23;;
50649;SDS011;36621;60.058;30.346;2023-06-26T22:11:30;37.30;;;14.32;;
50649;SDS011;36621;60.058;30.346;2023-06-26T22:19:02;24.95;;;13.85;;
50649;SDS011;36621;60.058;30.346;2023-06-26T22:26:34;30.08;;;13.77;;
50649;SDS011;36621;60.058;30.346;2023-06-26T22:34:08;18.42;;;12.60;;
50649;SDS011;36621;60.058;30.346;2023-06-26T22:41:41;27.75;;;12.85;;
50649;SDS011;36621;60.058;30.346;2023-06-26T22:49:13;28.75;;;13.27;;
50649;SDS011;36621;60.058;30.346;2023-06-26T22:56:45;29.95;;;12.02;;
50649;SDS011;36621;60.058;30.346;2023-06-26T23:04:17;18.67;;;11.70;;
50649;SDS011;36621;60.058;30.346;2023-06-26T23:11:50;15.43;;;11.90;;
50649;SDS011;36621;60.058;30.346;2023-06-26T23:19:22;12.70;;;10.88;;
50649;SDS011;36621;60.058;30.346;2023-06-26T23:26:55;17.17;;;11.95;;
50649;SDS011;36621;60.058;30.346;2023-06-26T23:34:27;16.70;;;12.15;;
50649;SDS011;36621;60.058;30.346;2023-06-26T23:42:00;15.50;;;12.43;;
50649;SDS011;36621;60.058;30.346;2023-06-26T23:49:32;17.27;;;12.93;;
50649;SDS011;36621;60.058;30.346;2023-06-26T23:57:06;16.98;;;12.32;;
